Time;durP1;ratioP1;P1;durP2;ratioP2;P2;SDS_P1;SDS_P2;PMS_P1;PMS_P2;Temp;Humidity;BMP_temperature;BMP_pressure;BME280_temperature;BME280_humidity;BME280_pressure;Samples;Min_cycle;Max_cycle;Signal;HPM_P1;HPM_P2
2023/07/19 00:01:29;;;;;;;5.28;1.70;;;;;;;;;;4993525;28;20034;-88
2023/07/19 00:03:57;;;;;;;7.53;1.80;;;;;;;;;;4994593;28;20471;-80
2023/07/19 00:06:24;;;;;;;5.78;1.52;;;;;;;;;;5007399;28;20049;-82
2023/07/19 00:08:50;;;;;;;5.47;1.48;;;;;;;;;;4994450;28;20377;-87
2023/07/19 00:11:17;;;;;;;9.57;2.03;;;;;;;;;;4993846;28;20038;-79
2023/07/19 00:13:43;;;;;;;6.75;1.90;;;;;;;;;;5011341;28;20050;-86
2023/07/19 00:16:09;;;;;;;8.70;1.92;;;;;;;;;;5017281;28;20132;-82
2023/07/19 00:18:35;;;;;;;5.35;1.60;;;;;;;;;;5013740;28;20041;-83
2023/07/19 00:21:01;;;;;;;6.00;1.60;;;;;;;;;;5011460;28;20553;-79
2023/07/19 00:23:27;;;;;;;4.53;1.60;;;;;;;;;;5013876;28;20058;-80
2023/07/19 00:25:53;;;;;;;7.57;1.80;;;;;;;;;;5012726;28;20033;-88
2023/07/19 00:28:19;;;;;;;4.28;1.50;;;;;;;;;;5012226;28;20121;-89
2023/07/19 00:30:46;;;;;;;4.18;1.55;;;;;;;;;;5012689;28;20030;-85
2023/07/19 00:33:12;;;;;;;6.93;1.58;;;;;;;;;;5011009;28;20038;-90
2023/07/19 00:35:41;;;;;;;5.90;1.88;;;;;;;;;;5014015;28;20073;-85
2023/07/19 00:38:07;;;;;;;6.82;1.67;;;;;;;;;;5012638;28;20037;-82
2023/07/19 00:40:34;;;;;;;8.63;1.63;;;;;;;;;;5012475;28;20041;-81
2023/07/19 00:43:00;;;;;;;4.68;1.80;;;;;;;;;;5012194;28;20053;-90
2023/07/19 00:45:26;;;;;;;5.18;1.50;;;;;;;;;;5013117;28;20415;-89
2023/07/19 00:47:54;;;;;;;4.22;1.90;;;;;;;;;;5013549;28;20046;-85
2023/07/19 00:50:20;;;;;;;11.05;2.50;;;;;;;;;;5011360;28;20092;-84
2023/07/19 00:52:47;;;;;;;6.68;1.92;;;;;;;;;;5013256;28;20034;-86
2023/07/19 00:55:13;;;;;;;6.95;2.05;;;;;;;;;;5012714;28;20140;-90
2023/07/19 00:57:39;;;;;;;5.78;2.10;;;;;;;;;;5013278;28;20093;-90
2023/07/19 01:00:06;;;;;;;10.98;2.17;;;;;;;;;;5017161;28;20042;-88
2023/07/19 01:02:32;;;;;;;7.85;2.28;;;;;;;;;;5013591;28;20119;-91
2023/07/19 01:04:58;;;;;;;6.70;2.13;;;;;;;;;;5019352;28;20060;-83
2023/07/19 01:07:24;;;;;;;6.30;2.00;;;;;;;;;;5011363;28;20037;-84
2023/07/19 01:09:51;;;;;;;6.82;2.00;;;;;;;;;;5013469;28;20092;-86
2023/07/19 01:12:18;;;;;;;6.35;2.40;;;;;;;;;;5013363;28;20134;-91
2023/07/19 01:14:44;;;;;;;6.55;2.30;;;;;;;;;;5013809;28;20506;-87
2023/07/19 01:17:10;;;;;;;5.78;2.10;;;;;;;;;;5014163;28;20036;-86
2023/07/19 01:19:36;;;;;;;7.22;2.20;;;;;;;;;;5013046;28;20088;-85
2023/07/19 01:22:03;;;;;;;6.60;2.28;;;;;;;;;;5014355;28;20034;-91
2023/07/19 01:24:29;;;;;;;5.88;1.90;;;;;;;;;;5012751;28;20034;-85
2023/07/19 01:26:55;;;;;;;5.65;2.13;;;;;;;;;;5013468;28;20037;-89
2023/07/19 01:29:22;;;;;;;5.43;1.92;;;;;;;;;;5014587;28;20037;-90
2023/07/19 01:31:48;;;;;;;8.00;2.10;;;;;;;;;;5014475;28;20037;-88
2023/07/19 01:34:14;;;;;;;7.93;2.10;;;;;;;;;;5013949;28;20084;-88
2023/07/19 01:36:40;;;;;;;4.38;1.80;;;;;;;;;;5014006;28;20134;-90
2023/07/19 01:39:06;;;;;;;6.70;2.10;;;;;;;;;;5014603;28;20022;-88
2023/07/19 01:41:32;;;;;;;8.70;1.98;;;;;;;;;;5013090;28;20034;-81
2023/07/19 01:43:58;;;;;;;6.25;1.90;;;;;;;;;;5014362;28;20056;-87
2023/07/19 01:46:24;;;;;;;9.55;2.08;;;;;;;;;;5021665;28;20038;-89
2023/07/19 01:48:50;;;;;;;9.00;1.90;;;;;;;;;;5004118;28;20026;-85
2023/07/19 01:51:16;;;;;;;5.20;1.83;;;;;;;;;;5013761;28;20484;-80
2023/07/19 01:53:42;;;;;;;8.27;2.10;;;;;;;;;;5013070;28;20022;-81
2023/07/19 01:56:08;;;;;;;5.07;1.77;;;;;;;;;;5018580;28;20069;-83
2023/07/19 01:58:34;;;;;;;6.80;2.17;;;;;;;;;;5017603;28;20037;-88
2023/07/19 02:01:00;;;;;;;6.63;2.00;;;;;;;;;;5000350;28;20249;-88
2023/07/19 02:03:26;;;;;;;5.25;1.98;;;;;;;;;;5016910;28;20172;-90
2023/07/19 02:05:59;;;;;;;6.68;2.08;;;;;;;;;;5019118;28;20042;-84
2023/07/19 02:08:25;;;;;;;4.90;2.15;;;;;;;;;;5017475;28;20026;-82
2023/07/19 02:10:51;;;;;;;12.15;2.10;;;;;;;;;;5014394;28;20100;-82
2023/07/19 02:13:17;;;;;;;5.28;2.03;;;;;;;;;;5007658;28;20042;-83
2023/07/19 02:15:45;;;;;;;5.03;1.90;;;;;;;;;;5004963;28;20100;-87
2023/07/19 02:18:11;;;;;;;9.43;2.05;;;;;;;;;;5004624;28;20026;-82
2023/07/19 02:20:38;;;;;;;8.02;2.22;;;;;;;;;;5010968;28;20026;-82
2023/07/19 02:23:04;;;;;;;6.88;2.13;;;;;;;;;;5003471;28;20510;-84
2023/07/19 02:25:30;;;;;;;7.85;1.80;;;;;;;;;;5005074;28;20034;-89
2023/07/19 02:27:56;;;;;;;4.68;1.88;;;;;;;;;;4995979;28;20030;-84
2023/07/19 02:30:22;;;;;;;7.32;2.17;;;;;;;;;;5003409;28;20058;-83
2023/07/19 02:32:48;;;;;;;7.03;2.45;;;;;;;;;;5011413;28;20029;-85
2023/07/19 02:35:14;;;;;;;7.15;2.10;;;;;;;;;;5001312;28;20050;-82
2023/07/19 02:37:40;;;;;;;7.57;2.03;;;;;;;;;;5010156;28;20117;-84
2023/07/19 02:40:07;;;;;;;6.25;2.10;;;;;;;;;;5003873;28;20050;-86
2023/07/19 02:42:33;;;;;;;11.80;2.40;;;;;;;;;;5003794;28;20034;-88
2023/07/19 02:44:59;;;;;;;6.30;2.30;;;;;;;;;;5008614;28;20113;-84
2023/07/19 02:47:25;;;;;;;6.13;2.20;;;;;;;;;;5002606;28;20057;-93
2023/07/19 02:49:52;;;;;;;7.75;2.10;;;;;;;;;;5001662;28;20031;-84
2023/07/19 02:52:18;;;;;;;6.38;2.05;;;;;;;;;;4991684;28;20039;-86
2023/07/19 02:54:44;;;;;;;7.50;2.38;;;;;;;;;;4993500;28;20050;-93
2023/07/19 02:57:10;;;;;;;9.40;2.40;;;;;;;;;;5008446;28;20040;-91
2023/07/19 02:59:36;;;;;;;8.45;2.20;;;;;;;;;;5007557;28;20070;-81
2023/07/19 03:02:02;;;;;;;10.45;2.30;;;615.20;2432.00;;;;;;4995383;28;20484;-84
2023/07/19 03:04:28;;;;;;;10.35;2.45;;;614.90;2432.00;;;;;;5006862;28;20037;-85
2023/07/19 03:06:56;;;;;;;6.10;2.00;;;614.80;2432.00;;;;;;5009594;28;20030;-86
2023/07/19 03:09:22;;;;;;;8.13;2.35;;;614.70;2432.00;;;;;;5004552;28;20030;-81
2023/07/19 03:11:48;;;;;;;8.00;2.30;;;614.60;2432.00;;;;;;5002666;28;20030;-81
2023/07/19 03:14:13;;;;;;;7.90;2.17;;;614.70;2432.00;;;;;;5019173;28;20133;-81
2023/07/19 03:16:40;;;;;;;8.30;2.20;;;614.50;2432.00;;;;;;5017859;28;20034;-82
2023/07/19 03:19:06;;;;;;;8.52;2.08;;;614.50;2432.00;;;;;;5016542;28;20041;-87
2023/07/19 03:21:32;;;;;;;8.25;2.33;;;614.50;2432.00;;;;;;5015266;28;20041;-85
2023/07/19 03:23:58;;;;;;;8.40;2.20;;;;;;;;;;5013443;28;20034;-88
2023/07/19 03:26:24;;;;;;;8.70;2.15;;;;;;;;;;5016560;28;20483;-87
2023/07/19 03:28:50;;;;;;;6.47;2.38;;;;;;;;;;5014779;28;20172;-78
2023/07/19 03:31:16;;;;;;;8.20;2.20;;;;;;;;;;5014834;28;20378;-82
2023/07/19 03:33:42;;;;;;;5.88;2.42;;;;;;;;;;5018338;28;20043;-88
2023/07/19 03:36:08;;;;;;;9.13;2.60;;;;;;;;;;5014817;28;20099;-83
2023/07/19 03:38:34;;;;;;;7.40;2.50;;;;;;;;;;5016266;28;20046;-86
2023/07/19 03:41:04;;;;;;;9.35;2.60;;;;;;;;;;5016079;28;20096;-86
2023/07/19 03:43:30;;;;;;;11.10;2.60;;;;;;;;;;5016440;28;20037;-88
2023/07/19 03:45:56;;;;;;;9.85;2.58;;;;;;;;;;5014349;28;20105;-88
2023/07/19 03:48:22;;;;;;;6.70;2.40;;;;;;;;;;5010912;28;20448;-83
2023/07/19 03:51:00;;;;;;;8.50;2.45;;;;;;;;;;5015238;28;20459;-84
2023/07/19 03:53:26;;;;;;;5.95;2.60;;;;;;;;;;5015193;28;20038;-85
2023/07/19 03:55:56;;;;;;;12.18;3.22;;;;;;;;;;5019896;28;20038;-86
2023/07/19 03:58:24;;;;;;;11.80;3.03;;;;;;;;;;5014902;28;20042;-81
2023/07/19 04:00:50;;;;;;;7.85;2.25;;;;;;;;;;5014546;28;20065;-92
2023/07/19 04:03:16;;;;;;;7.50;2.53;;;;;;;;;;5015140;28;20034;-79
2023/07/19 04:05:42;;;;;;;8.02;2.60;;;;;;;;;;5018782;28;20036;-88
2023/07/19 04:08:08;;;;;;;7.97;2.58;;;;;;;;;;5014037;28;20034;-87
2023/07/19 04:10:34;;;;;;;7.20;2.70;;;;;;;;;;5015451;28;20084;-78
2023/07/19 04:13:00;;;;;;;9.88;2.88;;;;;;;;;;5019987;28;20048;-89
2023/07/19 04:15:26;;;;;;;8.27;3.05;;;;;;;;;;5015348;28;20076;-83
2023/07/19 04:17:52;;;;;;;12.27;2.92;;;;;;;;;;5014914;28;20053;-84
2023/07/19 04:20:18;;;;;;;12.40;2.67;;;;;;;;;;5013630;28;20029;-85
2023/07/19 04:22:45;;;;;;;8.07;2.67;;;;;;;;;;5013826;28;20391;-84
2023/07/19 04:25:11;;;;;;;6.22;2.72;;;;;;;;;;5014760;28;20030;-87
2023/07/19 04:27:37;;;;;;;7.18;2.83;;;;;;;;;;5014753;28;20034;-86
2023/07/19 04:30:03;;;;;;;8.20;2.38;;;;;;;;;;5013172;28;20181;-87
2023/07/19 04:32:29;;;;;;;8.52;3.17;;;;;;;;;;5014471;28;20022;-86
2023/07/19 04:34:55;;;;;;;8.52;2.80;;;;;;;;;;5013992;28;20617;-90
2023/07/19 04:37:21;;;;;;;6.00;2.58;;;;;;;;;;5014223;28;20057;-84
2023/07/19 04:39:47;;;;;;;8.68;2.50;;;;;;;;;;5013958;28;20092;-87
2023/07/19 04:42:13;;;;;;;5.93;2.28;;;;;;;;;;5014562;28;20072;-86
2023/07/19 04:44:40;;;;;;;7.15;2.20;;;;;;;;;;5014880;28;20045;-91
2023/07/19 04:47:06;;;;;;;7.70;2.50;;;;;;;;;;5013952;28;20034;-89
2023/07/19 04:49:32;;;;;;;6.50;2.35;;;;;;;;;;5013457;28;20088;-92
2023/07/19 04:51:59;;;;;;;7.35;2.25;;;;;;;;;;5014555;28;20077;-93
2023/07/19 04:54:25;;;;;;;11.32;2.45;;;;;;;;;;5006342;28;20112;-91
2023/07/19 04:56:51;;;;;;;8.60;2.60;;;;;;;;;;4994426;28;20073;-92
2023/07/19 04:59:17;;;;;;;7.80;2.30;;;;;;;;;;4997300;28;20033;-92
2023/07/19 05:01:43;;;;;;;6.40;2.00;;;;;;;;;;5014569;28;20116;-91
2023/07/19 05:04:09;;;;;;;8.20;2.60;;;;;;;;;;5014301;28;20038;-92
2023/07/19 05:06:35;;;;;;;9.75;2.63;;;;;;;;;;5014388;28;20041;-92
2023/07/19 05:09:03;;;;;;;8.95;2.38;;;;;;;;;;5012436;28;20030;-90
2023/07/19 05:11:30;;;;;;;8.93;2.33;;;;;;;;;;5010642;28;20030;-93
2023/07/19 05:14:14;;;;;;;8.75;2.30;;;;;;;;;;4995288;28;20101;-91
2023/07/19 05:16:41;;;;;;;7.97;2.53;;;;;;;;;;4993720;28;20138;-91
2023/07/19 05:19:07;;;;;;;7.43;2.10;;;;;;;;;;4995093;28;20043;-91
2023/07/19 05:21:34;;;;;;;7.30;2.35;;;;;;;;;;4994810;28;20050;-92
2023/07/19 05:24:00;;;;;;;10.25;2.40;;;;;;;;;;4994410;28;20042;-91
2023/07/19 05:26:26;;;;;;;7.78;2.28;;;;;;;;;;4993529;28;20034;-90
2023/07/19 05:28:52;;;;;;;7.85;2.33;;;;;;;;;;5001726;28;20464;-89
2023/07/19 05:31:18;;;;;;;11.77;2.63;;;;;;;;;;4996483;28;20349;-92
2023/07/19 05:33:44;;;;;;;7.50;2.30;;;;;;;;;;4998101;28;20046;-91
2023/07/19 05:36:11;;;;;;;7.22;2.50;;;;;;;;;;4998787;28;20050;-92
2023/07/19 05:38:37;;;;;;;6.88;2.28;;;;;;;;;;4998433;28;20027;-91
2023/07/19 05:41:03;;;;;;;7.60;2.70;;;;;;;;;;4998704;28;20037;-92
2023/07/19 05:43:30;;;;;;;7.82;2.40;;;;;;;;;;4997734;28;20077;-91
2023/07/19 05:46:04;;;;;;;4.32;1.90;;;;;;;;;;4998739;28;20034;-91
2023/07/19 05:48:30;;;;;;;7.18;2.17;;;;;;;;;;4998976;28;20042;-92
2023/07/19 05:50:56;;;;;;;9.50;2.33;;;;;;;;;;4999276;28;20544;-92
2023/07/19 05:53:23;;;;;;;11.38;2.90;;;;;;;;;;4999263;28;20534;-92
2023/07/19 05:55:49;;;;;;;7.07;2.42;;;;;;;;;;4999535;28;20046;-92
2023/07/19 06:01:19;;;;;;;4.88;2.10;;;;;;;;;;4997412;28;20134;-91
2023/07/19 06:03:46;;;;;;;6.82;2.30;;;;;;;;;;4997897;28;20085;-92
2023/07/19 06:06:12;;;;;;;9.05;2.33;;;;;;;;;;4997266;28;20146;-90
2023/07/19 06:08:40;;;;;;;7.32;2.20;;;;;;;;;;4998074;28;20443;-90
2023/07/19 06:11:06;;;;;;;5.10;2.30;;;;;;;;;;4996888;28;20030;-87
2023/07/19 06:13:50;;;;;;;10.35;2.45;;;;;;;;;;5002732;28;20054;-88
2023/07/19 06:16:17;;;;;;;4.32;2.20;;;;;;;;;;5000729;28;20086;-91
2023/07/19 06:18:43;;;;;;;6.72;2.38;;;;;;;;;;4996926;28;20089;-91
2023/07/19 06:21:09;;;;;;;6.68;2.60;;;;;;;;;;4996884;28;20038;-91
2023/07/19 06:23:35;;;;;;;8.63;2.42;;;;;;;;;;4997302;28;20026;-87
2023/07/19 06:26:01;;;;;;;6.30;2.45;;;;;;;;;;5004183;28;20030;-88
2023/07/19 06:28:28;;;;;;;8.98;2.55;;;;;;;;;;5006756;28;20030;-91
2023/07/19 06:30:54;;;;;;;8.35;3.05;;;;;;;;;;5004786;28;20034;-90
2023/07/19 06:33:20;;;;;;;5.88;2.45;;;;;;;;;;4998204;28;20033;-87
2023/07/19 06:35:47;;;;;;;7.32;2.20;;;;;;;;;;5008299;28;20046;-89
2023/07/19 06:38:13;;;;;;;8.45;2.55;;;;;;;;;;5002528;28;20046;-90
2023/07/19 06:40:39;;;;;;;7.78;2.50;;;;;;;;;;5005692;28;20076;-89
2023/07/19 06:43:42;;;;;;;5.68;2.13;;;;;;;;;;4995218;28;20033;-88
2023/07/19 06:46:08;;;;;;;9.38;2.38;;;;;;;;;;5006183;28;20038;-89
2023/07/19 06:48:37;;;;;;;7.68;2.30;;;;;;;;;;5007425;28;20498;-86
2023/07/19 06:51:03;;;;;;;5.45;2.30;;;;;;;;;;4996233;28;20081;-85
2023/07/19 06:53:29;;;;;;;7.22;2.50;;;;;;;;;;4995536;28;20034;-88
2023/07/19 06:55:59;;;;;;;6.75;2.25;;;;;;;;;;4986397;28;20046;-91
2023/07/19 06:58:25;;;;;;;8.18;2.00;;;;;;;;;;4994885;28;20039;-91
2023/07/19 07:00:54;;;;;;;7.45;2.50;;;;;;;;;;4995246;28;20034;-90
2023/07/19 07:03:21;;;;;;;7.90;2.25;;;;;;;;;;4984293;28;20117;-90
2023/07/19 07:05:47;;;;;;;5.95;2.28;;;;;;;;;;4976642;28;20494;-90
2023/07/19 07:08:13;;;;;;;6.43;2.30;;;;;;;;;;4989304;28;20031;-88
2023/07/19 07:10:42;;;;;;;7.03;2.47;;;;;;;;;;4995384;28;20038;-89
2023/07/19 07:13:08;;;;;;;7.30;2.40;;;;;;;;;;5004304;28;20058;-88
2023/07/19 07:15:34;;;;;;;6.68;2.25;;;;;;;;;;4996056;28;20053;-88
2023/07/19 07:18:00;;;;;;;8.57;2.10;;;;;;;;;;5011530;28;20023;-88
2023/07/19 07:20:27;;;;;;;4.82;2.10;;;;;;;;;;4996061;28;20034;-86
2023/07/19 07:22:55;;;;;;;7.13;2.40;;;;;;;;;;4995751;28;20069;-87
2023/07/19 07:25:21;;;;;;;5.03;2.40;;;;;;;;;;5011580;28;20109;-89
2023/07/19 07:27:47;;;;;;;7.03;2.38;;;;;;;;;;4995326;28;20699;-87
2023/07/19 07:30:13;;;;;;;7.28;2.42;;;;;;;;;;4996006;28;20125;-88
2023/07/19 07:32:40;;;;;;;6.82;2.25;;;;;;;;;;4995487;28;20041;-87
2023/07/19 07:35:07;;;;;;;8.07;2.60;;;;;;;;;;4996137;28;20065;-86
2023/07/19 07:37:33;;;;;;;7.63;2.60;;;;;;;;;;4995695;28;20487;-88
2023/07/19 07:39:59;;;;;;;6.30;2.28;;;;;;;;;;4996007;28;20040;-86
2023/07/19 07:42:25;;;;;;;6.60;2.63;;;;;;;;;;4995038;28;20042;-87
2023/07/19 07:44:51;;;;;;;10.00;2.72;;;;;;;;;;5010746;28;20034;-88
2023/07/19 07:47:17;;;;;;;11.88;2.58;;;;;;;;;;4995482;28;20165;-87
2023/07/19 07:49:43;;;;;;;7.72;2.08;;;717.70;2432.00;;;;;;5010810;28;20467;-84
2023/07/19 07:52:11;;;;;;;6.13;2.45;;;;;;;;;;5010849;28;20066;-86
2023/07/19 07:54:38;;;;;;;6.78;2.50;;;;;;;;;;5009391;28;20476;-87
2023/07/19 07:57:04;;;;;;;4.28;2.50;;;;;;;;;;5011254;28;20110;-87
2023/07/19 08:02:33;;;;;;;10.02;2.60;;;;;;;;;;4995651;28;20045;-85
2023/07/19 08:05:00;;;;;;;4.90;2.45;;;717.60;2432.00;;;;;;4995655;28;20036;-83
2023/07/19 08:07:26;;;;;;;7.72;2.33;;;717.40;2432.00;;;;;;4994887;28;20030;-77
2023/07/19 08:09:52;;;;;;;9.23;2.53;;;;;;;;;;4993660;28;20125;-88
2023/07/19 08:12:21;;;;;;;5.72;2.15;;;;;;;;;;5000324;28;20132;-87
2023/07/19 08:14:47;;;;;;;7.38;2.25;;;;;;;;;;5007831;28;20037;-82
2023/07/19 08:17:13;;;;;;;6.93;2.65;;;;;;;;;;5014495;28;20049;-86
2023/07/19 08:19:39;;;;;;;8.13;2.50;;;;;;;;;;5014511;28;20037;-88
2023/07/19 08:22:05;;;;;;;6.45;2.40;;;;;;;;;;5014403;28;20178;-92
2023/07/19 08:24:31;;;;;;;9.13;2.47;;;;;;;;;;5014944;28;20483;-86
2023/07/19 08:26:58;;;;;;;7.47;2.72;;;;;;;;;;5014628;28;20503;-88
2023/07/19 08:30:05;;;;;;;8.93;2.60;;;;;;;;;;5014704;28;20041;-83
2023/07/19 08:32:32;;;;;;;8.43;2.53;;;;;;;;;;5013897;28;20042;-86
2023/07/19 08:34:58;;;;;;;6.55;2.47;;;;;;;;;;4996416;28;20044;-87
2023/07/19 08:37:24;;;;;;;5.80;2.30;;;;;;;;;;4995064;28;20042;-88
2023/07/19 08:39:50;;;;;;;8.82;2.70;;;;;;;;;;5016255;28;20030;-86
2023/07/19 08:42:16;;;;;;;6.32;2.70;;;;;;;;;;5014713;28;20120;-92
2023/07/19 08:44:42;;;;;;;9.40;3.03;;;;;;;;;;5019194;28;20034;-86
2023/07/19 08:47:11;;;;;;;10.25;2.83;;;;;;;;;;5014629;28;20091;-90
2023/07/19 08:49:37;;;;;;;7.05;2.70;;;;;;;;;;5013370;28;20108;-89
2023/07/19 08:52:05;;;;;;;7.72;2.60;;;;;;;;;;5016519;28;20125;-89
2023/07/19 08:54:32;;;;;;;7.60;2.72;;;;;;;;;;5033296;28;20124;-89
2023/07/19 08:56:58;;;;;;;9.52;2.53;;;743.30;2432.00;;;;;;5035133;28;20037;-88
2023/07/19 08:59:25;;;;;;;10.15;2.40;;;;;;;;;;5034091;28;20048;-91
2023/07/19 09:01:51;;;;;;;8.82;2.78;;;;;;;;;;5014238;28;20053;-90
2023/07/19 09:04:17;;;;;;;5.53;2.33;;;;;;;;;;5014347;28;20121;-93
2023/07/19 09:06:43;;;;;;;5.28;2.15;;;;;;;;;;5011988;28;20088;-89
2023/07/19 09:09:10;;;;;;;7.75;2.40;;;;;;;;;;5016245;28;20053;-86
2023/07/19 09:11:35;;;;;;;8.25;2.33;;;793.90;2355.20;;;;;;5017240;28;20034;-92
2023/07/19 09:17:50;;;;;;;7.70;2.55;;;793.70;2329.60;;;;;;4996253;28;20042;-85
2023/07/19 09:20:19;;;;;;;6.70;2.13;;;793.60;2304.00;;;;;;4994014;28;20046;-90
2023/07/19 09:22:45;;;;;;;7.50;2.50;;;768.60;2278.40;;;;;;5020423;28;20033;-90
2023/07/19 09:25:11;;;;;;;7.18;2.63;;;793.70;2304.00;;;;;;5033720;28;20112;-88
2023/07/19 09:27:40;;;;;;;9.02;2.42;;;793.70;2304.00;;;;;;5032128;28;20087;-91
2023/07/19 09:30:14;;;;;;;9.40;2.53;;;768.80;2278.40;;;;;;5032280;28;20398;-89
2023/07/19 09:32:40;;;;;;;9.68;2.58;;;768.60;2252.80;;;;;;5023108;28;20037;-87
2023/07/19 09:35:07;;;;;;;9.27;2.80;;;768.80;2304.00;;;;;;5027933;28;20038;-85
2023/07/19 09:37:33;;;;;;;7.40;2.63;;;768.70;2278.40;;;;;;5033004;28;20406;-85
2023/07/19 09:40:04;;;;;;;7.47;2.80;;;768.80;2252.80;;;;;;5026849;28;20030;-86
2023/07/19 09:42:32;;;;;;;8.07;2.53;;;793.60;2278.40;;;;;;5016471;28;20084;-87
2023/07/19 09:48:46;;;;;;;8.07;2.75;;;768.80;2252.80;;;;;;5013243;28;20674;-84
2023/07/19 09:51:13;;;;;;;9.90;3.55;;;768.80;2201.60;;;;;;5015901;28;20125;-82
2023/07/19 09:53:40;;;;;;;11.10;2.38;;;793.60;2227.20;;;;;;5024537;28;20029;-91
2023/07/19 09:56:09;;;;;;;6.72;2.42;;;793.90;2150.40;;;;;;5029369;28;20375;-87
2023/07/19 09:58:35;;;;;;;9.35;2.40;;;793.90;2150.40;;;;;;5023264;28;20553;-85
2023/07/19 10:04:28;;;;;;;7.35;2.58;;;794.40;2022.40;;;;;;5014608;28;20033;-88
2023/07/19 10:07:07;;;;;;;8.25;2.50;;;794.30;2048.00;;;;;;5028551;28;20030;-91
2023/07/19 10:09:40;;;;;;;8.38;2.63;;;794.20;2073.60;;;;;;5011540;28;20408;-87
2023/07/19 10:12:25;;;;;;;6.45;2.95;;;794.10;2150.40;;;;;;5018432;28;20037;-89
2023/07/19 10:15:00;;;;;;;6.53;2.45;;;819.20;2099.20;;;;;;5032798;28;20084;-91
2023/07/19 10:17:27;;;;;;;8.27;2.70;;;819.20;2124.80;;;;;;5033414;28;20034;-84
2023/07/19 10:20:10;;;;;;;8.13;2.75;;;;;;;;;;5026787;28;20037;-92
2023/07/19 10:22:49;;;;;;;6.38;2.20;;;;;;;;;;5015001;28;20387;-91
2023/07/19 10:25:19;;;;;;;8.07;2.60;;;;;;;;;;5019354;28;20042;-89
2023/07/19 10:28:01;;;;;;;6.32;2.13;;;819.60;1996.80;;;;;;5015640;28;20060;-82
2023/07/19 10:30:52;;;;;;;8.63;2.50;;;819.60;1996.80;;;;;;5024276;28;20033;-86
2023/07/19 10:33:28;;;;;;;8.48;2.45;;;844.80;1996.80;;;;;;5016670;28;20044;-87
2023/07/19 10:36:07;;;;;;;5.60;2.08;;;845.30;1971.20;;;;;;5012514;28;20121;-89
2023/07/19 10:38:33;;;;;;;8.93;2.40;;;845.60;1945.60;;;;;;5016219;28;20030;-90
2023/07/19 10:41:07;;;;;;;7.38;2.20;;;845.60;1868.80;;;;;;5015777;28;20364;-85
2023/07/19 10:43:37;;;;;;;5.35;2.10;;;870.60;1920.00;;;;;;5010655;28;20033;-89
2023/07/19 10:46:05;;;;;;;4.93;2.20;;;870.80;1817.60;;;;;;5009978;28;20034;-90
2023/07/19 10:48:32;;;;;;;7.38;2.42;;;870.40;1843.20;;;;;;5019392;28;20026;-89
2023/07/19 10:51:00;;;;;;;5.53;2.10;;;845.30;1868.80;;;;;;5016150;28;20034;-82
2023/07/19 10:53:26;;;;;;;10.02;2.50;;;845.50;1868.80;;;;;;5015696;28;20022;-85
2023/07/19 10:55:53;;;;;;;8.00;2.38;;;845.60;1868.80;;;;;;5000807;28;20508;-90
2023/07/19 10:58:19;;;;;;;5.97;2.10;;;870.70;1843.20;;;;;;5019425;28;20030;-90
2023/07/19 11:00:45;;;;;;;5.82;2.47;;;870.80;1817.60;;;;;;5021055;28;20116;-90
2023/07/19 11:03:15;;;;;;;4.63;2.10;;;871.00;1817.60;;;;;;5014417;28;20196;-88
2023/07/19 11:05:47;;;;;;;5.88;2.30;;;870.80;1817.60;;;;;;5015462;28;20933;-89
2023/07/19 11:08:27;;;;;;;7.90;2.40;;;871.00;1817.60;;;;;;5005311;28;20037;-86
2023/07/19 11:10:55;;;;;;;7.18;2.15;;;896.20;1817.60;;;;;;5010107;28;20042;-88
2023/07/19 11:13:24;;;;;;;7.50;2.42;;;870.90;1817.60;;;;;;5012758;28;20046;-88
2023/07/19 11:15:55;;;;;;;6.57;2.47;;;870.90;1817.60;;;;;;5016901;28;20057;-90
2023/07/19 11:18:27;;;;;;;4.50;2.08;;;871.00;1868.80;;;;;;5014922;28;20026;-91
2023/07/19 11:20:54;;;;;;;8.23;2.70;;;870.90;1817.60;;;;;;5013430;28;20045;-83
2023/07/19 11:23:19;;;;;;;6.30;2.53;;;870.60;1817.60;;;;;;5012539;28;20113;-82
2023/07/19 11:25:46;;;;;;;5.75;2.10;;;870.80;1817.60;;;;;;5013057;28;20464;-80
2023/07/19 11:28:13;;;;;;;9.23;2.28;;;871.20;1766.40;;;;;;5020711;28;20037;-82
2023/07/19 11:30:39;;;;;;;5.63;2.58;;;896.10;1715.20;;;;;;5000421;28;20503;-83
2023/07/19 11:33:07;;;;;;;7.32;2.25;;;870.80;1740.80;;;;;;5009558;28;20476;-84
2023/07/19 11:35:34;;;;;;;20.65;2.70;;;871.00;1766.40;;;;;;5006112;28;20046;-85
2023/07/19 11:38:00;;;;;;;6.47;2.50;;;870.80;1740.80;;;;;;5006228;28;20043;-83
2023/07/19 11:40:26;;;;;;;6.60;2.53;;;870.90;1766.40;;;;;;5008238;28;20365;-87
2023/07/19 11:42:57;;;;;;;7.32;2.50;;;871.00;1766.40;;;;;;5014343;28;20365;-85
2023/07/19 11:45:25;;;;;;;8.15;2.50;;;870.40;1792.00;;;;;;4995864;28;20038;-80
2023/07/19 11:47:58;;;;;;;7.85;2.30;;;845.60;1868.80;;;;;;5013561;28;20113;-82
2023/07/19 11:50:25;;;;;;;5.95;2.67;;;845.70;1843.20;;;;;;5012646;28;20081;-82
2023/07/19 11:53:03;;;;;;;7.07;2.60;;;845.70;1817.60;;;;;;5012401;28;20391;-80
2023/07/19 11:55:29;;;;;;;6.80;2.40;;;870.80;1740.80;;;;;;5009642;28;20500;-85
2023/07/19 11:58:03;;;;;;;7.10;2.40;;;870.90;1715.20;;;;;;5012867;28;20026;-79
2023/07/19 12:00:31;;;;;;;6.67;2.17;;;871.00;1638.40;;;;;;5012159;28;20399;-83
2023/07/19 12:02:57;;;;;;;7.05;2.30;;;896.10;1612.80;;;;;;5008146;28;20121;-81
2023/07/19 12:05:25;;;;;;;5.95;2.53;;;896.20;1612.80;;;;;;4999646;28;20480;-84
2023/07/19 12:07:51;;;;;;;6.40;2.35;;;871.30;1664.00;;;;;;5010440;28;20375;-84
2023/07/19 12:10:22;;;;;;;7.78;2.70;;;896.10;1664.00;;;;;;5009941;28;20033;-90
2023/07/19 12:12:48;;;;;;;5.70;2.40;;;896.70;1638.40;;;;;;5009407;28;20053;-85
2023/07/19 12:15:15;;;;;;;6.85;2.70;;;;;;;;;;5003078;28;20045;-81
2023/07/19 12:17:41;;;;;;;6.78;2.80;;;;;;;;;;5009103;28;20033;-87
2023/07/19 12:20:08;;;;;;;5.50;2.30;;;;;;;;;;5012977;28;20499;-84
2023/07/19 12:22:38;;;;;;;8.52;2.63;;;;;;;;;;5009000;28;20029;-78
2023/07/19 12:25:04;;;;;;;7.43;2.45;;;;;;;;;;5009257;28;20060;-84
2023/07/19 12:27:30;;;;;;;6.63;2.42;;;;;;;;;;5010479;28;20128;-80
2023/07/19 12:29:58;;;;;;;8.23;2.42;;;;;;;;;;5010748;28;20418;-83
2023/07/19 12:32:24;;;;;;;6.53;2.45;;;;;;;;;;5021598;28;20041;-85
2023/07/19 12:34:50;;;;;;;6.65;2.63;;;;;;;;;;5003728;28;20443;-83
2023/07/19 12:37:17;;;;;;;9.00;2.42;;;;;;;;;;5009400;28;20094;-82
2023/07/19 12:39:43;;;;;;;6.75;2.28;;;922.40;1561.60;;;;;;5015087;28;20038;-82
2023/07/19 12:42:10;;;;;;;7.00;2.38;;;922.20;1561.60;;;;;;5013446;28;20422;-83
2023/07/19 12:44:36;;;;;;;5.28;2.05;;;921.90;1587.20;;;;;;5012543;28;20061;-84
2023/07/19 12:47:03;;;;;;;7.97;2.70;;;922.40;1587.20;;;;;;5010075;28;20030;-84
2023/07/19 12:49:29;;;;;;;7.72;2.53;;;922.10;1561.60;;;;;;5011862;28;20146;-84
2023/07/19 12:51:56;;;;;;;8.25;2.50;;;921.90;1561.60;;;;;;5010770;28;20172;-81
2023/07/19 12:54:22;;;;;;;6.25;2.30;;;921.90;1536.00;;;;;;5015933;28;20099;-82
2023/07/19 12:56:48;;;;;;;9.65;2.63;;;896.80;1561.60;;;;;;5012719;28;20450;-81
2023/07/19 12:59:14;;;;;;;8.60;2.30;;;921.90;1561.60;;;;;;5012155;28;20141;-81
2023/07/19 13:01:40;;;;;;;7.90;2.40;;;896.90;1561.60;;;;;;5012004;28;20038;-84
2023/07/19 13:04:07;;;;;;;7.63;2.38;;;896.90;1536.00;;;;;;5013046;28;20061;-83
2023/07/19 13:06:33;;;;;;;8.05;2.42;;;896.90;1536.00;;;;;;5011884;28;20026;-84
2023/07/19 13:08:59;;;;;;;12.23;2.83;;;896.80;1561.60;;;;;;5011583;28;20038;-81
2023/07/19 13:11:25;;;;;;;7.00;2.35;;;896.70;1587.20;;;;;;5012289;28;20084;-86
2023/07/19 13:13:51;;;;;;;5.63;2.30;;;921.80;1561.60;;;;;;5013156;28;20042;-87
2023/07/19 13:16:17;;;;;;;7.22;2.60;;;922.10;1536.00;;;;;;5012499;28;20384;-80
2023/07/19 13:18:44;;;;;;;6.40;2.50;;;922.30;1536.00;;;;;;5010830;28;20049;-85
2023/07/19 13:21:10;;;;;;;8.95;2.70;;;;;;;;;;5013410;28;20025;-86
2023/07/19 13:23:36;;;;;;;6.97;2.20;;;;;;;;;;5012171;28;20037;-88
2023/07/19 13:26:04;;;;;;;6.60;2.63;;;922.30;1561.60;;;;;;5013623;28;20061;-87
2023/07/19 13:28:29;;;;;;;9.07;2.67;;;921.80;1536.00;;;;;;5012671;28;20045;-87
2023/07/19 13:30:56;;;;;;;6.30;2.45;;;922.10;1561.60;;;;;;5012621;28;20030;-79
2023/07/19 13:33:24;;;;;;;6.22;2.60;;;922.20;1536.00;;;;;;5021540;28;20045;-84
2023/07/19 13:35:51;;;;;;;8.48;2.47;;;922.10;1510.40;;;;;;5012092;28;20042;-86
2023/07/19 13:38:16;;;;;;;5.85;2.22;;;896.80;1536.00;;;;;;5013445;28;20042;-85
2023/07/19 13:40:42;;;;;;;7.50;2.70;;;922.40;1536.00;;;;;;5011623;28;20034;-86
2023/07/19 13:43:10;;;;;;;8.32;2.53;;;922.30;1536.00;;;;;;4997580;28;20088;-85
2023/07/19 13:45:36;;;;;;;7.53;2.70;;;;;;;;;;5012284;28;20065;-84
2023/07/19 13:48:03;;;;;;;10.73;2.70;;;947.70;1510.40;;;;;;5010484;28;20064;-87
2023/07/19 13:50:29;;;;;;;7.40;2.40;;;948.00;1459.20;;;;;;5011197;28;20034;-85
2023/07/19 13:52:54;;;;;;;7.30;2.58;;;972.80;1510.40;;;;;;5014798;28;20038;-89
2023/07/19 13:55:20;;;;;;;8.40;2.60;;;948.10;1459.20;;;;;;5011074;28;20044;-84
2023/07/19 13:57:46;;;;;;;6.60;2.65;;;947.70;1484.80;;;;;;5013038;28;20038;-81
2023/07/19 14:00:12;;;;;;;5.03;2.63;;;947.60;1459.20;;;;;;5015406;28;20057;-84
2023/07/19 14:02:38;;;;;;;6.75;2.85;;;947.90;1484.80;;;;;;5016376;28;20041;-87
2023/07/19 14:05:05;;;;;;;6.90;3.00;;;948.00;1459.20;;;;;;5016212;28;20112;-83